createdAt,value
2018-02-09T00:01:58.333Z,24.30
2018-02-09T00:04:26.671Z,24.90
2018-02-09T00:06:55.002Z,23.03
2018-02-09T00:09:23.395Z,24.43
2018-02-09T00:11:52.141Z,24.03
2018-02-09T00:14:20.513Z,21.53
2018-02-09T00:16:48.913Z,28.27
2018-02-09T00:19:17.293Z,23.30
2018-02-09T00:21:45.722Z,25.93
2018-02-09T00:24:14.125Z,23.57
2018-02-09T00:26:42.470Z,23.57
2018-02-09T00:29:11.236Z,24.53
2018-02-09T00:31:40.053Z,26.17
2018-02-09T00:34:08.451Z,23.50
2018-02-09T00:36:36.795Z,25.73
2018-02-09T00:39:05.584Z,24.70
2018-02-09T00:41:34.341Z,24.00
2018-02-09T00:44:02.672Z,24.53
2018-02-09T00:46:31.048Z,22.77
2018-02-09T00:48:59.642Z,26.70
2018-02-09T00:51:28.006Z,24.33
2018-02-09T00:53:56.393Z,24.10
2018-02-09T00:56:25.150Z,23.73
2018-02-09T00:58:54.138Z,24.97
2018-02-09T01:01:24.662Z,23.10
2018-02-09T01:03:53.918Z,23.90
2018-02-09T01:06:22.267Z,27.47
2018-02-09T01:08:50.638Z,25.10
2018-02-09T01:11:19.374Z,21.50
2018-02-09T01:13:48.914Z,24.00
2018-02-09T01:16:17.267Z,23.30
2018-02-09T01:18:45.614Z,22.40
2018-02-09T01:21:13.987Z,22.77
2018-02-09T01:23:42.462Z,22.60
2018-02-09T01:26:10.829Z,26.20
2018-02-09T01:28:39.271Z,24.57
2018-02-09T01:31:07.671Z,22.70
2018-02-09T01:33:36.859Z,24.33
2018-02-09T01:36:05.274Z,22.40
2018-02-09T01:38:33.643Z,25.07
2018-02-09T01:41:02.307Z,24.43
2018-02-09T01:43:31.058Z,25.83
2018-02-09T01:45:59.585Z,24.10
2018-02-09T01:48:28.183Z,24.67
2018-02-09T01:50:56.833Z,25.90
2018-02-09T01:53:26.288Z,23.93
2018-02-09T01:55:55.206Z,25.33
2018-02-09T01:58:24.828Z,25.00
2018-02-09T02:00:53.918Z,26.13
2018-02-09T02:03:22.778Z,25.00
2018-02-09T02:05:51.810Z,24.57
2018-02-09T02:08:20.806Z,26.07
2018-02-09T02:10:49.919Z,25.33
2018-02-09T02:13:18.823Z,26.53
2018-02-09T02:15:47.373Z,25.67
2018-02-09T02:18:15.741Z,24.97
2018-02-09T02:20:44.098Z,28.80
2018-02-09T02:23:12.844Z,28.37
2018-02-09T02:25:41.582Z,26.87
2018-02-09T02:28:09.933Z,23.97
2018-02-09T02:30:38.357Z,23.93
2018-02-09T02:33:06.714Z,25.50
2018-02-09T02:35:35.075Z,25.50
2018-02-09T02:38:03.487Z,24.90
2018-02-09T02:40:31.843Z,25.10
2018-02-09T02:43:00.195Z,28.20
2018-02-09T02:45:28.574Z,25.40
2018-02-09T02:47:56.954Z,23.87
2018-02-09T02:50:25.379Z,26.30
2018-02-09T02:52:54.070Z,25.77
2018-02-09T02:55:22.436Z,24.70
2018-02-09T02:57:51.049Z,26.90
2018-02-09T03:00:19.786Z,28.03
2018-02-09T03:02:48.137Z,27.33
2018-02-09T03:05:16.510Z,26.23
2018-02-09T03:07:44.895Z,27.17
2018-02-09T03:10:13.257Z,29.23
2018-02-09T03:12:42.446Z,27.67
2018-02-09T03:15:11.198Z,27.00
2018-02-09T03:17:39.541Z,27.47
2018-02-09T03:20:07.927Z,25.20
2018-02-09T03:22:36.391Z,28.30
2018-02-09T03:25:04.770Z,26.17
2018-02-09T03:27:33.106Z,26.77
2018-02-09T03:30:01.501Z,26.10
2018-02-09T03:32:30.244Z,26.67
2018-02-09T03:34:58.587Z,27.87
2018-02-09T03:37:27.345Z,26.67
2018-02-09T03:39:55.798Z,29.53
2018-02-09T03:42:24.155Z,27.13
2018-02-09T03:44:52.526Z,28.57
2018-02-09T03:47:20.857Z,27.60
2018-02-09T03:49:49.201Z,30.73
2018-02-09T03:52:17.602Z,28.40
2018-02-09T03:54:45.971Z,30.07
2018-02-09T03:57:14.324Z,26.37
2018-02-09T03:59:42.717Z,24.70
2018-02-09T04:02:11.350Z,31.13
2018-02-09T04:04:40.122Z,28.30
2018-02-09T04:07:08.486Z,27.90
2018-02-09T04:09:36.842Z,29.93
2018-02-09T04:12:05.210Z,29.90
2018-02-09T04:14:33.591Z,28.83
2018-02-09T04:17:02.185Z,29.90
2018-02-09T04:19:30.563Z,29.30
2018-02-09T04:21:58.915Z,27.53
2018-02-09T04:24:27.297Z,27.80
2018-02-09T04:26:55.954Z,28.63
2018-02-09T04:29:24.753Z,28.30
2018-02-09T04:31:53.501Z,29.83
2018-02-09T04:34:21.858Z,28.40
2018-02-09T04:36:50.275Z,30.17
2018-02-09T04:39:18.610Z,29.80
2018-02-09T04:41:46.965Z,32.57
2018-02-09T04:44:15.365Z,29.07
2018-02-09T04:46:43.702Z,30.43
2018-02-09T04:49:12.796Z,30.00
2018-02-09T04:51:42.803Z,29.97
2018-02-09T04:54:11.575Z,30.77
2018-02-09T04:56:39.909Z,31.17
2018-02-09T04:59:08.981Z,30.97
2018-02-09T05:01:37.378Z,33.87
2018-02-09T05:04:05.779Z,28.90
2018-02-09T05:06:34.110Z,29.77
2018-02-09T05:09:02.862Z,30.90
2018-02-09T05:11:31.698Z,31.87
2018-02-09T05:14:00.053Z,31.33
2018-02-09T05:16:29.036Z,29.60
2018-02-09T05:18:57.826Z,30.60
2018-02-09T05:21:26.189Z,30.33
2018-02-09T05:23:55.036Z,29.40
2018-02-09T05:26:23.698Z,30.77
2018-02-09T05:28:52.435Z,29.70
2018-02-09T05:31:20.860Z,34.70
2018-02-09T05:33:49.597Z,28.83
2018-02-09T05:36:17.951Z,30.90
2018-02-09T05:38:46.325Z,29.20
2018-02-09T05:41:14.987Z,29.63
2018-02-09T05:43:43.746Z,29.40
2018-02-09T05:46:12.137Z,31.60
2018-02-09T05:48:40.473Z,31.70
2018-02-09T05:51:08.826Z,28.63
2018-02-09T05:53:37.237Z,31.17
2018-02-09T05:56:05.614Z,28.53
2018-02-09T05:58:33.970Z,32.00
2018-02-09T06:01:02.333Z,30.83
2018-02-09T06:03:31.057Z,28.90
2018-02-09T06:05:59.392Z,30.03
2018-02-09T06:08:28.149Z,31.00
2018-02-09T06:10:57.289Z,30.83
2018-02-09T06:13:25.673Z,31.70
2018-02-09T06:15:54.110Z,32.23
2018-02-09T06:18:22.454Z,30.73
2018-02-09T06:20:50.870Z,28.73
2018-02-09T06:23:19.469Z,31.53
2018-02-09T06:25:48.201Z,32.97
2018-02-09T06:28:16.573Z,32.83
2018-02-09T06:30:44.930Z,31.03
2018-02-09T06:33:13.291Z,31.13
2018-02-09T06:35:42.077Z,30.63
2018-02-09T06:38:11.173Z,28.13
2018-02-09T06:40:39.946Z,30.40
2018-02-09T06:43:08.313Z,32.87
2018-02-09T06:45:36.699Z,32.83
2018-02-09T06:48:05.510Z,31.47
2018-02-09T06:50:34.241Z,32.03
2018-02-09T06:53:02.585Z,30.87
2018-02-09T06:55:31.011Z,33.47
2018-02-09T06:57:59.373Z,32.53
2018-02-09T07:00:27.737Z,32.30
2018-02-09T07:02:56.160Z,34.57
2018-02-09T07:05:24.527Z,31.73
2018-02-09T07:07:52.913Z,33.53
2018-02-09T07:10:21.311Z,31.83
2018-02-09T07:12:49.670Z,32.17
2018-02-09T07:15:18.086Z,37.30
2018-02-09T07:17:46.493Z,30.40
2018-02-09T07:20:17.742Z,31.93
2018-02-09T07:22:46.150Z,31.27
2018-02-09T07:25:14.519Z,32.80
2018-02-09T07:27:42.944Z,34.30
2018-02-09T07:30:11.377Z,34.20
2018-02-09T07:32:39.717Z,32.50
2018-02-09T07:35:08.046Z,33.37
2018-02-09T07:37:36.628Z,32.50
2018-02-09T07:40:05.168Z,33.20
2018-02-09T07:42:33.546Z,31.07
2018-02-09T07:45:01.959Z,30.73
2018-02-09T07:47:30.350Z,31.90
2018-02-09T07:49:58.749Z,30.23
2018-02-09T07:52:27.506Z,28.37
2018-02-09T07:54:55.876Z,31.93
2018-02-09T07:57:24.478Z,31.10
2018-02-09T07:59:53.089Z,31.97
2018-02-09T08:02:21.846Z,31.70
2018-02-09T08:04:50.306Z,34.60
2018-02-09T08:07:18.936Z,33.03
2018-02-09T08:09:47.684Z,36.07
2018-02-09T08:12:16.070Z,31.10
2018-02-09T08:14:44.436Z,32.30
2018-02-09T08:17:12.849Z,31.00
2018-02-09T08:19:41.245Z,34.63
2018-02-09T08:22:09.983Z,30.00
2018-02-09T08:24:38.326Z,30.83
2018-02-09T08:27:06.674Z,33.97
2018-02-09T08:29:35.109Z,30.10
2018-02-09T08:32:03.513Z,29.30
2018-02-09T08:34:31.887Z,30.77
2018-02-09T08:37:00.289Z,33.70
2018-02-09T08:39:29.259Z,31.70
2018-02-09T08:41:57.603Z,30.80
2018-02-09T08:44:25.977Z,30.47
2018-02-09T08:46:54.502Z,31.20
2018-02-09T08:49:22.835Z,30.87
2018-02-09T08:51:51.170Z,32.57
2018-02-09T08:54:19.567Z,32.67
2018-02-09T08:56:48.358Z,33.03
2018-02-09T08:59:16.702Z,31.20
2018-02-09T09:01:45.106Z,31.07
2018-02-09T09:04:13.459Z,31.60
2018-02-09T09:06:41.806Z,32.03
2018-02-09T09:09:10.160Z,33.90
2018-02-09T09:11:38.510Z,30.40
2018-02-09T09:14:07.382Z,31.47
2018-02-09T09:16:35.785Z,31.20
2018-02-09T09:19:04.753Z,31.57
2018-02-09T09:21:33.106Z,30.43
2018-02-09T09:24:01.519Z,29.83
2018-02-09T09:26:29.888Z,28.20
2018-02-09T09:28:58.251Z,32.90
2018-02-09T09:31:27.286Z,31.73
2018-02-09T09:33:56.135Z,29.63
2018-02-09T09:36:24.516Z,30.70
2018-02-09T09:38:52.865Z,29.97
2018-02-09T09:41:21.218Z,32.40
2018-02-09T09:43:49.765Z,30.87
2018-02-09T09:46:18.138Z,31.47
2018-02-09T09:48:46.522Z,28.30
2018-02-09T09:51:14.946Z,29.80
2018-02-09T09:53:43.298Z,31.10
2018-02-09T09:56:12.272Z,28.47
2018-02-09T09:58:40.994Z,29.60
2018-02-09T10:04:03.761Z,30.33
2018-02-09T10:06:32.601Z,35.90
2018-02-09T10:09:00.968Z,29.33
2018-02-09T10:11:29.539Z,29.57
2018-02-09T10:13:57.910Z,27.47
2018-02-09T10:16:26.272Z,29.33
2018-02-09T10:18:55.030Z,26.40
2018-02-09T10:21:23.404Z,32.57
2018-02-09T10:23:51.792Z,42.10
2018-02-09T10:26:20.257Z,47.20
2018-02-09T10:28:48.618Z,43.90
2018-02-09T10:31:17.264Z,49.80
2018-02-09T10:33:45.631Z,56.37
2018-02-09T10:36:14.369Z,44.53
2018-02-09T10:38:42.750Z,52.53
2018-02-09T10:41:11.139Z,48.27
2018-02-09T10:43:39.922Z,60.77
2018-02-09T10:46:08.302Z,49.67
2018-02-09T10:48:36.665Z,59.17
2018-02-09T10:51:05.063Z,52.43
2018-02-09T10:53:33.415Z,54.70
2018-02-09T10:56:01.766Z,57.07
2018-02-09T10:58:30.510Z,50.50
2018-02-09T11:00:58.844Z,51.10
2018-02-09T11:03:27.210Z,59.70
2018-02-09T11:05:56.119Z,54.00
2018-02-09T11:08:24.463Z,64.23
2018-02-09T11:10:53.554Z,55.30
2018-02-09T11:13:27.556Z,56.97
2018-02-09T11:15:55.901Z,54.70
2018-02-09T11:18:24.294Z,54.80
2018-02-09T11:20:52.659Z,55.07
2018-02-09T11:23:21.017Z,61.47
2018-02-09T11:25:49.433Z,56.47
2018-02-09T11:28:17.800Z,57.03
2018-02-09T11:30:46.206Z,62.37
2018-02-09T11:33:14.707Z,53.83
2018-02-09T11:35:43.437Z,57.73
2018-02-09T11:38:11.825Z,52.97
2018-02-09T11:40:40.232Z,51.80
2018-02-09T11:43:09.290Z,51.97
2018-02-09T11:45:38.486Z,48.50
2018-02-09T11:48:06.921Z,49.20
2018-02-09T11:50:35.689Z,57.63
2018-02-09T11:53:04.062Z,53.83
2018-02-09T11:55:32.434Z,50.50
2018-02-09T11:58:00.771Z,46.87
2018-02-09T12:00:29.130Z,56.27
2018-02-09T12:02:57.494Z,50.63
2018-02-09T12:05:26.238Z,48.23
2018-02-09T12:07:54.618Z,50.37
2018-02-09T12:10:23.327Z,49.37
2018-02-09T12:12:52.233Z,48.00
2018-02-09T12:15:21.015Z,47.57
2018-02-09T12:17:49.376Z,50.80
2018-02-09T12:20:17.773Z,51.27
2018-02-09T12:22:46.134Z,44.23
2018-02-09T12:25:14.491Z,51.10
2018-02-09T12:27:42.891Z,47.70
2018-02-09T12:30:11.215Z,47.33
2018-02-09T12:32:39.603Z,47.80
2018-02-09T12:35:07.989Z,48.90
2018-02-09T12:37:36.349Z,53.87
2018-02-09T12:40:04.707Z,51.20
2018-02-09T12:42:33.478Z,45.83
2018-02-09T12:45:02.587Z,47.33
2018-02-09T12:47:31.362Z,52.53
2018-02-09T12:49:59.754Z,49.10
2018-02-09T12:52:28.614Z,47.40
2018-02-09T12:54:56.951Z,46.23
2018-02-09T12:57:25.394Z,56.77
2018-02-09T12:59:53.737Z,44.30
2018-02-09T13:02:22.358Z,48.63
2018-02-09T13:04:51.134Z,50.90
2018-02-09T13:07:19.502Z,54.77
2018-02-09T13:09:48.321Z,52.17
2018-02-09T13:12:28.933Z,51.47
2018-02-09T13:14:57.666Z,47.77
2018-02-09T13:17:26.455Z,49.70
2018-02-09T13:19:55.318Z,46.00
2018-02-09T13:22:35.490Z,50.30
2018-02-09T13:25:03.835Z,45.33
2018-02-09T13:27:32.462Z,48.00
2018-02-09T13:30:00.863Z,45.43
2018-02-09T13:32:41.021Z,42.27
2018-02-09T13:35:09.402Z,53.07
2018-02-09T13:37:37.770Z,45.17
2018-02-09T13:40:06.124Z,46.50
2018-02-09T13:42:34.539Z,43.73
2018-02-09T13:45:02.966Z,44.67
2018-02-09T13:47:31.309Z,44.47
2018-02-09T13:49:59.722Z,42.07
2018-02-09T13:52:28.086Z,43.97
2018-02-09T13:54:56.422Z,43.40
2018-02-09T13:57:24.969Z,40.50
2018-02-09T13:59:53.418Z,42.50
2018-02-09T14:02:21.778Z,49.10
2018-02-09T14:04:50.622Z,45.33
2018-02-09T14:07:18.984Z,49.70
2018-02-09T14:09:47.548Z,51.67
2018-02-09T14:12:16.514Z,50.27
2018-02-09T14:14:44.863Z,52.97
2018-02-09T14:17:13.603Z,52.77
2018-02-09T14:19:41.980Z,50.30
2018-02-09T14:22:10.691Z,46.10
2018-02-09T14:24:39.072Z,45.60
2018-02-09T14:27:07.452Z,49.60
2018-02-09T14:29:35.829Z,50.33
2018-02-09T14:32:04.204Z,46.20
2018-02-09T14:34:32.646Z,44.77
2018-02-09T14:37:01.049Z,44.07
2018-02-09T14:39:29.411Z,45.50
2018-02-09T14:41:57.814Z,50.90
2018-02-09T14:44:26.188Z,48.30
2018-02-09T14:46:54.550Z,51.77
2018-02-09T14:49:22.954Z,49.23
2018-02-09T14:51:51.326Z,52.20
2018-02-09T14:54:19.708Z,59.70
2018-02-09T14:56:48.340Z,53.77
2018-02-09T14:59:16.719Z,52.27
2018-02-09T15:01:45.380Z,62.33
2018-02-09T15:04:13.742Z,50.03
2018-02-09T15:06:42.344Z,54.17
2018-02-09T15:09:11.110Z,58.30
2018-02-09T15:11:39.531Z,60.73
2018-02-09T15:14:07.910Z,66.00
2018-02-09T15:16:36.344Z,64.03
2018-02-09T15:19:05.064Z,59.27
2018-02-09T15:21:33.491Z,70.83
2018-02-09T15:24:01.877Z,62.53
2018-02-09T15:26:30.267Z,62.10
2018-02-09T15:28:58.655Z,63.63
2018-02-09T15:31:27.432Z,65.43
2018-02-09T15:33:55.794Z,60.10
2018-02-09T15:36:24.147Z,59.70
2018-02-09T15:38:52.538Z,62.27
2018-02-09T15:41:20.911Z,68.17
2018-02-09T15:43:49.289Z,63.50
2018-02-09T15:46:17.698Z,64.37
2018-02-09T15:48:46.062Z,64.03
2018-02-09T15:51:14.460Z,68.03
2018-02-09T15:53:42.819Z,69.50
2018-02-09T15:56:11.174Z,62.80
2018-02-09T15:58:39.578Z,71.30
2018-02-09T16:01:08.209Z,64.50
2018-02-09T16:03:36.999Z,69.37
2018-02-09T16:06:14.106Z,74.90
2018-02-09T16:08:42.452Z,75.20
2018-02-09T16:11:11.260Z,76.03
2018-02-09T16:13:39.638Z,70.40
2018-02-09T16:16:08.019Z,80.23
2018-02-09T16:18:36.415Z,82.47
2018-02-09T16:21:04.831Z,82.00
2018-02-09T16:23:33.194Z,73.63
2018-02-09T16:26:01.570Z,80.23
2018-02-09T16:28:29.937Z,74.17
2018-02-09T16:30:58.282Z,74.63
2018-02-09T16:33:27.040Z,78.03
2018-02-09T16:35:55.408Z,78.10
2018-02-09T16:38:23.802Z,76.00
2018-02-09T16:40:52.546Z,75.73
2018-02-09T16:43:20.902Z,84.60
2018-02-09T16:45:49.273Z,79.03
2018-02-09T16:48:17.941Z,73.27
2018-02-09T16:50:46.714Z,80.43
2018-02-09T16:53:15.139Z,76.33
2018-02-09T16:55:43.590Z,73.00
2018-02-09T16:58:11.961Z,81.87
2018-02-09T17:00:40.327Z,83.83
2018-02-09T17:03:09.034Z,82.87
2018-02-09T17:05:37.426Z,77.07
2018-02-09T17:08:06.187Z,92.27
2018-02-09T17:10:34.673Z,84.43
2018-02-09T17:13:03.071Z,84.67
2018-02-09T17:15:31.833Z,80.53
2018-02-09T17:18:00.272Z,81.90
2018-02-09T17:20:28.661Z,79.97
2018-02-09T17:22:57.031Z,83.23
2018-02-09T17:25:25.640Z,80.97
2018-02-09T17:27:53.977Z,85.83
2018-02-09T17:30:22.642Z,81.50
2018-02-09T17:32:51.493Z,75.60
2018-02-09T17:35:19.856Z,78.13
2018-02-09T17:37:48.589Z,73.10
2018-02-09T17:40:17.349Z,70.93
2018-02-09T17:42:45.717Z,79.90
2018-02-09T17:45:14.125Z,75.33
2018-02-09T17:47:42.812Z,70.00
2018-02-09T17:50:11.671Z,78.07
2018-02-09T17:52:40.094Z,67.03
2018-02-09T17:55:08.839Z,75.27
2018-02-09T17:57:37.213Z,80.43
2018-02-09T18:00:05.661Z,66.33
2018-02-09T18:02:34.033Z,76.50
2018-02-09T18:05:02.382Z,77.30
2018-02-09T18:07:31.003Z,77.10
2018-02-09T18:09:59.423Z,79.27
2018-02-09T18:12:27.785Z,79.07
2018-02-09T18:14:56.163Z,70.97
2018-02-09T18:17:29.151Z,74.70
2018-02-09T18:19:57.590Z,74.20
2018-02-09T18:22:26.071Z,80.13
2018-02-09T18:24:54.575Z,64.80
2018-02-09T18:27:23.031Z,76.27
2018-02-09T18:29:51.375Z,62.90
2018-02-09T18:32:19.738Z,77.80
2018-02-09T18:34:48.121Z,74.37
2018-02-09T18:37:16.484Z,62.87
2018-02-09T18:39:44.934Z,74.17
2018-02-09T18:42:13.293Z,74.17
2018-02-09T18:44:42.156Z,75.63
2018-02-09T18:47:10.545Z,77.40
2018-02-09T18:49:38.982Z,65.23
2018-02-09T18:52:08.151Z,76.47
2018-02-09T18:54:36.508Z,70.40
2018-02-09T18:57:04.914Z,71.97
2018-02-09T18:59:33.290Z,66.90
2018-02-09T19:02:01.722Z,71.77
2018-02-09T19:04:30.175Z,58.40
2018-02-09T19:06:59.048Z,73.23
2018-02-09T19:09:27.543Z,77.33
2018-02-09T19:11:56.020Z,72.60
2018-02-09T19:14:24.413Z,84.40
2018-02-09T19:16:52.850Z,86.10
2018-02-09T19:19:21.300Z,81.23
2018-02-09T19:21:49.738Z,79.03
2018-02-09T19:24:18.137Z,76.53
2018-02-09T19:26:46.559Z,85.87
2018-02-09T19:29:14.973Z,95.47
2018-02-09T19:31:43.354Z,82.47
2018-02-09T19:34:11.711Z,89.40
2018-02-09T19:36:40.105Z,93.47
2018-02-09T19:39:08.714Z,90.30
2018-02-09T19:41:37.983Z,80.67
2018-02-09T19:44:06.394Z,87.37
2018-02-09T19:46:34.883Z,92.33
2018-02-09T19:49:03.270Z,91.37
2018-02-09T19:51:31.673Z,88.97
2018-02-09T19:54:00.040Z,89.90
2018-02-09T19:56:28.859Z,90.80
2018-02-09T19:58:57.283Z,90.37
2018-02-09T20:01:25.682Z,95.07
2018-02-09T20:03:54.046Z,87.67
2018-02-09T20:06:22.866Z,86.40
2018-02-09T20:08:51.308Z,83.80
2018-02-09T20:11:19.856Z,77.67
2018-02-09T20:13:48.255Z,86.70
2018-02-09T20:16:16.646Z,93.23
2018-02-09T20:18:45.019Z,92.37
2018-02-09T20:21:14.396Z,91.60
2018-02-09T20:23:42.793Z,90.30
2018-02-09T20:26:11.354Z,90.33
2018-02-09T20:28:39.713Z,89.87
2018-02-09T20:31:08.581Z,98.67
2018-02-09T20:33:37.127Z,93.03
2018-02-09T20:36:06.586Z,95.20
2018-02-09T20:38:35.063Z,98.40
2018-02-09T20:41:03.517Z,93.13
2018-02-09T20:43:31.870Z,94.23
2018-02-09T20:46:00.250Z,92.13
2018-02-09T20:48:28.633Z,81.27
2018-02-09T20:50:57.578Z,86.10
2018-02-09T20:53:25.991Z,88.93
2018-02-09T20:55:54.423Z,93.13
2018-02-09T20:58:24.088Z,89.30
2018-02-09T21:00:53.311Z,91.10
2018-02-09T21:03:21.703Z,89.20
2018-02-09T21:05:50.468Z,88.83
2018-02-09T21:08:19.337Z,85.60
2018-02-09T21:10:48.134Z,93.13
2018-02-09T21:13:16.527Z,74.30
2018-02-09T21:15:44.977Z,91.30
2018-02-09T21:18:13.440Z,92.03
2018-02-09T21:20:41.875Z,87.20
2018-02-09T21:23:10.478Z,93.27
2018-02-09T21:25:39.272Z,77.83
2018-02-09T21:28:08.860Z,87.23
2018-02-09T21:30:37.334Z,90.57
2018-02-09T21:33:05.694Z,86.60
2018-02-09T21:35:34.612Z,90.63
2018-02-09T21:38:03.417Z,86.03
2018-02-09T21:40:32.161Z,90.40
2018-02-09T21:43:00.997Z,87.57
2018-02-09T21:45:29.776Z,90.43
2018-02-09T21:47:58.186Z,86.50
2018-02-09T21:50:26.813Z,84.37
2018-02-09T21:52:55.203Z,88.70
2018-02-09T21:55:23.672Z,95.17
2018-02-09T21:57:52.049Z,80.53
2018-02-09T22:00:20.431Z,62.70
2018-02-09T22:02:48.801Z,61.20
2018-02-09T22:05:17.162Z,63.70
2018-02-09T22:07:45.513Z,58.43
2018-02-09T22:10:13.857Z,55.30
2018-02-09T22:12:42.205Z,59.27
2018-02-09T22:15:10.545Z,58.90
2018-02-09T22:17:39.056Z,56.03
2018-02-09T22:20:07.457Z,57.13
2018-02-09T22:22:35.864Z,51.07
2018-02-09T22:25:04.229Z,54.53
2018-02-09T22:27:32.692Z,55.27
2018-02-09T22:30:01.073Z,51.33
2018-02-09T22:32:29.505Z,49.40
2018-02-09T22:34:57.858Z,49.63
2018-02-09T22:37:26.610Z,49.87
2018-02-09T22:39:54.986Z,48.20
2018-02-09T22:42:23.338Z,48.67
2018-02-09T22:44:51.687Z,48.37
2018-02-09T22:47:20.057Z,47.20
2018-02-09T22:49:48.814Z,47.23
2018-02-09T22:52:17.172Z,45.17
2018-02-09T22:54:45.562Z,49.70
2018-02-09T22:57:13.937Z,48.20
2018-02-09T22:59:42.353Z,45.63
2018-02-09T23:02:12.639Z,47.90
2018-02-09T23:04:41.211Z,43.70
2018-02-09T23:07:09.616Z,46.77
2018-02-09T23:09:37.977Z,45.73
2018-02-09T23:12:06.334Z,47.07
2018-02-09T23:14:34.701Z,46.57
2018-02-09T23:17:03.058Z,49.43
2018-02-09T23:19:31.821Z,43.13
2018-02-09T23:22:00.294Z,41.27
2018-02-09T23:24:28.687Z,42.50
2018-02-09T23:26:57.066Z,42.77
2018-02-09T23:29:25.437Z,44.07
2018-02-09T23:31:53.830Z,43.50
2018-02-09T23:34:22.718Z,45.10
2018-02-09T23:36:51.479Z,41.60
2018-02-09T23:39:19.910Z,43.80
2018-02-09T23:41:48.699Z,41.83
2018-02-09T23:44:17.151Z,42.50
2018-02-09T23:46:45.587Z,43.50
2018-02-09T23:49:13.983Z,43.67
2018-02-09T23:51:42.314Z,43.33
2018-02-09T23:54:11.074Z,43.20
2018-02-09T23:56:39.878Z,43.40
2018-02-09T23:59:08.631Z,42.70
